Time;durP1;ratioP1;P1;durP2;ratioP2;P2;SDS_P1;SDS_P2;PMS_P1;PMS_P2;Temp;Humidity;BMP_temperature;BMP_pressure;BME280_temperature;BME280_humidity;BME280_pressure;Samples;Min_cycle;Max_cycle;Signal;HPM_P1;HPM_P2
2023/01/26 00:01:12;;;;;;;2.95;1.20;;;;;;;18.65;34.81;102401.00;5013505;28;20663;-50
2023/01/26 00:03:39;;;;;;;3.05;1.08;;;;;;;18.73;35.58;102413.53;5014900;28;20026;-50
2023/01/26 00:06:07;;;;;;;1.83;1.30;;;;;;;18.75;35.54;102403.25;5013642;28;20036;-49
2023/01/26 00:08:40;;;;;;;2.72;1.10;;;;;;;18.69;35.07;102393.31;5015110;28;20116;-52
2023/01/26 00:11:09;;;;;;;6.97;1.67;;;;;;;18.89;34.72;102401.28;5014494;28;20484;-49
2023/01/26 00:13:35;;;;;;;4.75;1.30;;;;;;;18.57;35.96;102400.47;5018291;28;20112;-51
2023/01/26 00:16:02;;;;;;;2.17;1.15;;;;;;;18.41;36.31;102389.13;4994012;28;20584;-52
2023/01/26 00:18:29;;;;;;;7.97;1.92;;;;;;;18.60;35.67;102392.75;4998421;28;20492;-52
2023/01/26 00:20:57;;;;;;;5.28;1.30;;;;;;;18.77;35.48;102401.19;5027158;28;20042;-52
2023/01/26 00:23:24;;;;;;;4.78;1.20;;;;;;;18.61;34.64;102396.28;5030866;28;20038;-53
2023/01/26 00:25:51;;;;;;;2.13;1.10;;;;;;;18.32;35.57;102393.19;5013207;28;20092;-52
2023/01/26 00:28:17;;;;;;;3.45;1.00;;;;;;;18.55;35.01;102395.28;5015554;28;20029;-52
2023/01/26 00:30:43;;;;;;;1.58;1.40;;;;;;;18.59;35.13;102393.78;5024474;28;20103;-52
2023/01/26 00:33:09;;;;;;;5.05;1.38;;;;;;;18.45;35.20;102395.78;5013283;28;20022;-49
2023/01/26 00:35:36;;;;;;;2.40;1.20;;;;;;;18.33;35.69;102396.72;5019652;28;20029;-49
2023/01/26 00:38:03;;;;;;;1.92;1.10;;;;;;;18.35;35.58;102397.31;5033162;28;20028;-50
2023/01/26 00:40:29;;;;;;;2.33;1.30;;;;;;;18.22;35.51;102400.13;5015979;28;20022;-50
2023/01/26 00:42:56;;;;;;;1.73;1.13;;;;;;;18.33;35.41;102400.25;5016634;28;20026;-49
2023/01/26 00:45:22;;;;;;;3.00;1.08;;;;;;;18.27;34.79;102400.31;5012843;28;20033;-52
2023/01/26 00:47:49;;;;;;;2.03;1.10;;;;;;;18.07;35.54;102403.13;5028103;28;20087;-49
2023/01/26 00:50:15;;;;;;;2.38;1.15;;;;;;;17.94;35.98;102395.94;5032678;28;20025;-53
2023/01/26 00:52:41;;;;;;;3.42;1.10;;;;;;;18.20;35.50;102398.44;5015573;28;20023;-50
2023/01/26 00:55:08;;;;;;;2.45;1.23;;;;;;;18.25;35.48;102399.69;4994142;28;20395;-52
2023/01/26 00:57:34;;;;;;;1.58;1.15;;;;;;;18.29;35.29;102398.19;4993337;28;20500;-52
2023/01/26 01:00:00;;;;;;;1.90;1.30;;;;;;;18.08;35.80;102399.38;4994353;28;20464;-52
2023/01/26 01:02:27;;;;;;;8.63;1.60;;;;;;;18.09;35.80;102395.59;5013269;28;20027;-53
2023/01/26 01:04:53;;;;;;;4.38;1.45;;;;;;;18.04;35.87;102396.25;5032360;28;20083;-50
2023/01/26 01:07:19;;;;;;;2.80;1.95;;;;;;;17.83;36.58;102399.31;5031832;28;20045;-49
2023/01/26 01:09:45;;;;;;;3.28;1.67;;;;;;;17.81;36.47;102395.97;5001989;28;20047;-49
2023/01/26 01:12:12;;;;;;;1.70;1.30;;;;;;;17.60;37.18;102397.94;5024750;28;20029;-49
2023/01/26 01:14:38;;;;;;;2.92;1.42;;;;;;;17.59;38.27;102398.13;5002390;28;20034;-52
2023/01/26 01:17:04;;;;;;;1.73;1.27;;;;;;;17.46;38.58;102401.72;5012683;28;20025;-52
2023/01/26 01:19:31;;;;;;;2.40;1.60;;;;;;;17.48;39.19;102401.50;5009408;28;20026;-52
2023/01/26 01:21:57;;;;;;;2.78;1.30;;;;;;;17.41;39.86;102415.91;5016693;28;20034;-52
2023/01/26 01:24:23;;;;;;;1.95;1.55;;;;;;;17.29;39.73;102409.47;5007853;28;20083;-50
2023/01/26 01:26:49;;;;;;;1.95;1.23;;;;;;;17.23;39.88;102414.91;4993431;28;20540;-52
2023/01/26 01:29:16;;;;;;;2.58;1.75;;;;;;;17.15;39.81;102411.38;4993263;28;20041;-53
2023/01/26 01:31:42;;;;;;;5.13;1.58;;;;;;;17.01;39.90;102419.75;4992307;28;20477;-52
2023/01/26 01:34:08;;;;;;;2.17;1.20;;;;;;;16.82;39.50;102419.56;5000227;28;20026;-52
2023/01/26 01:36:35;;;;;;;3.88;2.00;;;;;;;16.92;40.27;102419.13;5030124;28;20041;-52
2023/01/26 01:39:01;;;;;;;2.47;1.60;;;;;;;16.96;40.57;102414.13;5013039;28;20026;-50
2023/01/26 01:41:27;;;;;;;3.45;1.35;;;;;;;16.76;40.48;102427.66;5023335;28;20083;-50
2023/01/26 01:44:18;;;;;;;3.50;1.40;;;;;;;16.59;40.88;102419.09;5010156;28;20026;-51
2023/01/26 01:47:00;;;;;;;1.70;1.33;;;;;;;16.54;41.04;102414.31;5030566;28;20387;-51
2023/01/26 01:49:31;;;;;;;3.33;1.63;;;;;;;16.49;41.24;102416.81;5012276;28;20068;-52
2023/01/26 01:52:02;;;;;;;3.20;1.38;;;;;;;16.30;41.91;102423.84;5025417;28;20030;-52
2023/01/26 01:54:36;;;;;;;2.95;1.45;;;;;;;16.24;42.46;102418.44;5019238;28;20040;-52
2023/01/26 01:57:14;;;;;;;5.73;1.40;;;;;;;15.63;43.71;102421.16;5006719;28;20033;-52
2023/01/26 01:59:44;;;;;;;2.42;1.20;;;;;;;15.69;43.78;102426.59;5025092;28;20116;-53
2023/01/26 02:02:11;;;;;;;3.55;1.42;;;;;;;15.59;43.71;102420.69;5012374;28;20120;-50
2023/01/26 02:04:37;;;;;;;3.22;1.08;;;;;;;15.59;43.72;102424.22;5006624;28;20041;-52
2023/01/26 02:07:04;;;;;;;2.40;1.00;;;;;;;15.53;44.02;102424.19;4991784;28;20068;-51
2023/01/26 02:12:25;;;;;;;2.47;0.80;;;;;;;15.52;44.75;102436.03;5004840;28;20045;-50
2023/01/26 02:14:52;;;;;;;4.75;1.13;;;;;;;15.31;45.04;102431.53;4999511;28;20393;-52
2023/01/26 02:17:19;;;;;;;2.58;1.02;;;;;;;15.14;45.73;102432.91;5006476;28;20030;-49
2023/01/26 02:19:58;;;;;;;0.98;0.70;;;;;;;15.15;45.66;102434.56;5012175;28;20065;-50
2023/01/26 02:22:41;;;;;;;2.63;0.82;;;;;;;14.96;45.79;102434.22;4992282;28;20034;-49
2023/01/26 02:25:23;;;;;;;5.22;1.20;;;;;;;14.95;45.79;102435.25;4991951;28;20216;-51
2023/01/26 02:27:50;;;;;;;1.63;1.08;;;;;;;14.89;45.71;102436.06;4998842;28;20034;-52
2023/01/26 02:30:17;;;;;;;3.10;1.40;;;;;;;14.89;46.22;102446.84;4999033;28;20037;-52
2023/01/26 02:32:43;;;;;;;1.67;0.70;;;;;;;14.75;46.46;102448.56;5030999;28;20025;-51
2023/01/26 02:35:09;;;;;;;6.28;1.58;;;;;;;14.47;46.79;102443.13;5031151;28;20025;-53
2023/01/26 02:37:38;;;;;;;1.52;0.63;;;;;;;14.51;46.65;102443.59;5024526;28;20053;-52
2023/01/26 02:40:18;;;;;;;3.13;0.90;;;;;;;14.47;46.79;102447.69;5002203;28;20030;-51
2023/01/26 02:42:44;;;;;;;2.13;0.93;;;;;;;14.40;46.90;102447.59;4995903;28;20034;-53
2023/01/26 02:45:13;;;;;;;1.67;1.00;;;;;;;14.42;47.30;102453.63;4996383;28;20035;-50
2023/01/26 02:47:40;;;;;;;3.55;1.25;;;;;;;14.25;47.27;102453.03;4998986;28;20026;-50
2023/01/26 02:50:08;;;;;;;1.83;1.17;;;;;;;14.22;48.03;102452.59;5035462;28;20021;-51
2023/01/26 02:52:34;;;;;;;3.13;1.00;;;;;;;14.19;47.86;102450.28;5034918;28;20487;-50
2023/01/26 02:57:46;;;;;;;2.70;1.30;;;;;;;13.95;48.61;102449.59;5022713;28;20045;-52
2023/01/26 03:00:16;;;;;;;5.45;2.20;;;;;;;13.80;48.74;102451.47;5015328;28;20021;-49
2023/01/26 03:02:43;;;;;;;3.47;2.10;;;;;;;13.67;49.31;102460.22;5014499;28;20029;-52
2023/01/26 03:05:10;;;;;;;3.33;2.10;;;;;;;13.68;49.92;102464.59;5049882;23;20406;-49
2023/01/26 03:07:36;;;;;;;3.55;1.90;;;;;;;13.57;50.13;102462.38;5054923;28;20060;-52
2023/01/26 03:10:03;;;;;;;4.32;2.10;;;;;;;13.46;50.61;102466.34;5054686;28;20039;-52
2023/01/26 03:12:30;;;;;;;2.33;2.03;;;;;;;13.55;50.62;102471.63;5054598;28;20033;-49
2023/01/26 03:17:40;;;;;;;4.25;2.50;;;;;;;12.94;51.09;102472.56;5047772;28;20031;-52
2023/01/26 03:28:22;;;;;;;5.15;2.42;;;;;;;12.99;51.11;102460.41;5034725;28;20392;-50
2023/01/26 03:30:50;;;;;;;4.05;2.40;;;;;;;13.05;51.24;102459.72;5034274;28;20026;-49
2023/01/26 03:33:17;;;;;;;5.18;2.25;;;;;;;12.83;51.44;102470.31;5033920;28;20033;-52
2023/01/26 03:35:44;;;;;;;4.20;2.15;;;;;;;12.84;51.62;102471.97;5033745;28;20120;-52
2023/01/26 03:38:11;;;;;;;4.78;2.38;;;;;;;12.71;51.55;102471.75;5044827;28;20021;-53
2023/01/26 03:57:08;;;;;;;5.47;2.00;;;;;;;12.23;51.38;102487.19;5051705;28;20040;-49
2023/01/26 03:59:37;;;;;;;3.40;1.88;;;;;;;12.36;50.97;102487.44;5034847;28;20032;-52
2023/01/26 04:10:27;;;;;;;2.88;1.20;;;;;;;12.24;52.09;102496.09;5053694;28;20043;-51
2023/01/26 04:23:56;;;;;;;4.78;1.88;;;;;;;11.96;53.55;102491.19;5053712;28;20042;-50
2023/01/26 04:26:23;;;;;;;3.80;1.45;;;;;;;12.06;52.91;102494.50;5033435;28;20033;-50
2023/01/26 04:28:50;;;;;;;2.55;1.30;;;;;;;12.06;52.81;102488.28;5052515;28;20063;-49
2023/01/26 04:31:17;;;;;;;1.15;1.00;;;;;;;11.97;52.88;102492.84;5052332;28;20017;-50
2023/01/26 04:33:43;;;;;;;1.58;1.00;;;;;;;11.65;53.58;102485.72;5052889;28;20448;-50
2023/01/26 04:36:10;;;;;;;1.70;1.23;;;;;;;11.61;53.79;102493.31;5052740;28;20087;-51
2023/01/26 04:38:36;;;;;;;1.92;1.17;;;;;;;11.47;54.08;102488.66;5052839;28;20029;-50
2023/01/26 04:41:02;;;;;;;2.30;1.20;;;;;;;11.96;52.81;102493.03;5052561;28;20096;-49
2023/01/26 04:43:29;;;;;;;3.63;1.58;;;;;;;11.92;52.75;102492.53;5052651;28;20446;-48
2023/01/26 04:45:59;;;;;;;2.83;1.55;;;;;;;11.75;53.29;102491.75;5052409;28;20064;-52
2023/01/26 04:48:27;;;;;;;3.00;1.55;;;;;;;11.53;54.02;102498.69;5041343;28;20082;-49
2023/01/26 04:50:59;;;;;;;2.55;1.30;;;;;;;11.41;54.65;102493.84;5051873;28;20098;-49
2023/01/26 04:53:26;;;;;;;3.22;1.60;;;;;;;11.33;54.66;102497.41;5052176;28;20029;-52
2023/01/26 04:55:53;;;;;;;3.40;1.20;;;;;;;11.45;54.47;102500.56;5052526;28;20467;-51
2023/01/26 04:58:19;;;;;;;2.72;1.20;;;;;;;11.52;54.34;102496.19;5052670;28;20364;-49
2023/01/26 05:00:50;;;;;;;4.05;1.52;;;;;;;11.29;54.84;102502.25;5052028;28;20017;-52
2023/01/26 05:03:16;;;;;;;5.93;1.73;;;;;;;11.28;54.82;102497.91;5051550;28;20391;-49
2023/01/26 05:05:43;;;;;;;5.95;2.67;;;;;;;10.90;55.01;102506.66;5051955;28;20047;-50
2023/01/26 05:08:09;;;;;;;3.88;2.70;;;;;;;11.01;55.09;102503.63;5052424;28;20068;-51
2023/01/26 05:10:35;;;;;;;4.10;2.28;;;;;;;11.10;54.76;102500.78;5052391;28;20551;-52
2023/01/26 05:13:01;;;;;;;4.15;2.25;;;;;;;11.05;54.57;102503.13;5039336;28;20068;-49
2023/01/26 05:15:28;;;;;;;3.75;2.05;;;;;;;11.14;54.04;102497.75;5036838;28;20025;-52
2023/01/26 05:17:56;;;;;;;3.17;1.83;;;;;;;11.20;53.62;102505.94;5051924;28;20544;-49
2023/01/26 05:20:22;;;;;;;3.47;1.88;;;;;;;10.82;54.64;102510.16;5051855;28;20017;-49
2023/01/26 05:22:49;;;;;;;3.80;1.80;;;;;;;11.20;53.34;102505.13;5052058;28;20123;-48
2023/01/26 05:25:15;;;;;;;4.07;1.77;;;;;;;11.14;53.39;102503.13;5051849;28;20782;-49
2023/01/26 05:27:41;;;;;;;2.67;1.70;;;;;;;11.08;53.33;102499.25;5051773;28;20017;-49
2023/01/26 05:30:08;;;;;;;4.88;2.42;;;;;;;10.97;53.34;102502.28;5051700;28;20052;-48
2023/01/26 05:32:35;;;;;;;4.93;1.70;;;;;;;10.92;53.24;102508.13;5051934;28;20025;-50
2023/01/26 05:35:01;;;;;;;2.47;1.40;;;;;;;10.90;53.69;102517.38;5051795;28;20903;-50
2023/01/26 05:37:28;;;;;;;3.53;2.05;;;;;;;10.95;53.90;102512.34;5051688;28;20021;-51
2023/01/26 05:39:55;;;;;;;2.85;1.85;;;;;;;11.06;53.73;102515.53;5051493;28;20509;-50
2023/01/26 05:42:22;;;;;;;3.30;1.85;;;;;;;11.06;53.57;102507.47;5051457;28;20031;-50
2023/01/26 05:44:48;;;;;;;4.07;1.40;;;;;;;10.94;52.88;102514.19;5051437;28;20040;-49
2023/01/26 05:47:15;;;;;;;3.45;1.58;;;;;;;11.12;52.36;102519.38;5051302;28;20139;-50
2023/01/26 05:49:42;;;;;;;2.78;1.45;;;;;;;10.93;52.93;102517.00;5039093;28;20072;-49
2023/01/26 05:52:09;;;;;;;3.10;1.45;;;;;;;10.88;52.78;102517.50;5036468;28;20109;-49
2023/01/26 05:54:36;;;;;;;2.15;1.00;;;;;;;10.97;52.21;102519.19;5049062;28;20036;-48
2023/01/26 05:57:02;;;;;;;3.50;1.80;;;;;;;10.98;52.86;102515.50;5040207;28;20017;-48
2023/01/26 05:59:29;;;;;;;2.35;1.60;;;;;;;10.90;52.86;102520.03;5031583;28;20021;-49
2023/01/26 06:01:56;;;;;;;3.05;1.27;;;;;;;10.93;52.51;102527.72;5049364;28;20395;-48
2023/01/26 06:04:22;;;;;;;2.20;1.13;;;;;;;10.90;52.74;102518.19;5050867;28;20041;-49
2023/01/26 06:06:51;;;;;;;4.05;1.63;;;;;;;10.91;52.99;102527.91;5051472;28;20035;-50
2023/01/26 06:09:17;;;;;;;1.92;0.90;;;;;;;11.02;51.44;102521.38;5051234;28;20395;-49
2023/01/26 06:11:43;;;;;;;1.20;0.88;;;;;;;10.89;51.95;102527.25;5050438;28;20036;-49
2023/01/26 06:14:10;;;;;;;2.00;1.38;;;;;;;10.96;51.50;102530.09;5051088;28;20622;-48
2023/01/26 06:16:36;;;;;;;2.28;1.15;;;;;;;11.19;51.27;102532.94;5051263;28;20029;-48
2023/01/26 06:19:02;;;;;;;5.03;1.67;;;;;;;11.33;50.60;102533.09;5050896;28;20475;-48
2023/01/26 06:21:30;;;;;;;2.05;1.20;;;;;;;11.14;50.44;102535.28;5050859;28;20071;-48
2023/01/26 06:23:56;;;;;;;3.05;0.90;;;;;;;11.10;51.09;102537.44;5051154;28;20483;-48
2023/01/26 06:26:25;;;;;;;1.35;1.02;;;;;;;11.18;51.02;102536.63;5051028;28;20029;-48
2023/01/26 06:28:52;;;;;;;5.03;1.08;;;;;;;11.07;51.44;102537.78;5051391;28;20064;-47
2023/01/26 06:31:20;;;;;;;1.48;0.90;;;;;;;11.30;50.57;102535.25;5051112;28;20033;-50
2023/01/26 06:33:46;;;;;;;2.30;1.02;;;;;;;11.20;50.48;102532.75;5051192;28;20486;-49
2023/01/26 06:36:14;;;;;;;3.75;1.33;;;;;;;11.07;50.66;102527.06;5051064;28;20167;-48
2023/01/26 06:38:51;;;;;;;2.00;1.20;;;;;;;11.12;50.87;102537.28;5051205;28;20021;-48
2023/01/26 06:41:18;;;;;;;2.42;1.33;;;;;;;11.05;50.96;102529.94;5050858;28;20048;-48
2023/01/26 06:43:46;;;;;;;3.28;1.30;;;;;;;10.85;51.59;102533.94;5051058;28;20491;-48
2023/01/26 06:46:13;;;;;;;1.73;1.10;;;;;;;10.92;51.68;102526.06;5050976;28;20029;-48
2023/01/26 06:48:40;;;;;;;1.83;1.38;;;;;;;10.64;52.51;102525.53;5050405;28;20051;-48
2023/01/26 06:51:16;;;;;;;5.32;1.40;;;;;;;10.51;53.14;102528.69;5049234;28;20121;-48
2023/01/26 06:53:46;;;;;;;2.67;1.63;;;;;;;10.82;52.76;102535.09;5050321;28;20033;-50
2023/01/26 06:56:13;;;;;;;3.90;1.80;;;;;;;10.97;52.33;102545.16;5050694;28;20537;-48
2023/01/26 06:58:40;;;;;;;3.60;2.08;;;;;;;10.53;53.43;102546.25;5048910;28;20032;-49
2023/01/26 07:01:06;;;;;;;3.03;1.35;;;;;;;10.38;53.60;102539.84;5051141;28;20502;-48
2023/01/26 07:03:32;;;;;;;5.90;1.90;;;;;;;10.30;54.06;102553.22;5049072;28;20033;-49
2023/01/26 07:05:58;;;;;;;2.60;1.83;;;;;;;10.25;54.26;102553.72;5050660;28;20036;-51
2023/01/26 07:08:25;;;;;;;3.75;2.30;;;;;;;10.23;54.98;102552.19;5030727;28;20104;-51
2023/01/26 07:10:51;;;;;;;1.83;1.42;;;;;;;10.18;55.23;102557.19;5050594;28;20047;-49
2023/01/26 07:13:17;;;;;;;2.83;2.00;;;;;;;10.27;55.25;102548.19;5041435;28;20499;-51
2023/01/26 07:15:44;;;;;;;3.47;2.20;;;;;;;10.40;54.35;102551.25;5050553;28;20112;-51
2023/01/26 07:18:10;;;;;;;6.95;2.50;;;;;;;10.47;54.48;102548.75;5050354;28;20064;-52
2023/01/26 07:20:36;;;;;;;4.90;2.30;;;;;;;10.12;55.26;102564.00;5048021;28;20024;-49
2023/01/26 07:23:03;;;;;;;2.70;1.80;;;;;;;10.22;55.11;102556.69;5050548;28;20021;-48
2023/01/26 07:25:29;;;;;;;4.82;2.17;;;;;;;10.19;55.48;102565.03;5052474;28;20027;-49
2023/01/26 07:27:56;;;;;;;5.13;1.90;;;;;;;9.98;55.79;102569.94;5054350;28;20029;-48
2023/01/26 07:30:23;;;;;;;3.10;1.92;;;;;;;10.03;55.88;102562.28;5053941;28;20108;-48
2023/01/26 07:32:49;;;;;;;3.97;2.20;;;;;;;9.72;56.91;102562.81;5054265;28;20441;-49
2023/01/26 07:35:16;;;;;;;2.60;1.52;;;;;;;9.75;56.87;102570.50;5054123;28;20028;-51
2023/01/26 07:37:43;;;;;;;3.53;1.50;;;;;;;9.51;57.67;102565.00;5053879;28;20078;-50
2023/01/26 07:40:10;;;;;;;2.95;1.42;;;;;;;9.47;57.93;102566.31;5053861;28;20045;-48
2023/01/26 07:42:36;;;;;;;5.22;1.17;;;;;;;9.32;58.43;102563.34;5053745;28;20025;-50
2023/01/26 07:45:02;;;;;;;7.75;1.38;;;;;;;9.26;58.81;102574.66;5053812;28;20503;-49
2023/01/26 07:47:28;;;;;;;2.15;1.05;;;;;;;8.99;59.75;102578.28;5053897;28;20547;-48
2023/01/26 07:49:55;;;;;;;1.65;1.13;;;;;;;8.86;60.07;102577.81;5053597;28;20083;-49
2023/01/26 07:52:21;;;;;;;3.20;1.55;;;;;;;8.81;60.44;102575.59;5053454;28;20104;-48
2023/01/26 07:54:47;;;;;;;2.17;1.27;;;;;;;8.61;60.93;102574.09;5053489;28;20021;-51
2023/01/26 07:57:13;;;;;;;2.08;1.33;;;;;;;8.55;61.82;102575.53;5053649;28;20080;-50
2023/01/26 07:59:39;;;;;;;4.78;1.35;;;;;;;8.78;61.25;102575.09;5053703;28;20056;-52
2023/01/26 08:02:08;;;;;;;3.00;1.27;;;;;;;8.74;61.51;102579.88;5053145;28;20506;-51
2023/01/26 08:04:34;;;;;;;3.28;1.50;;;;;;;8.72;61.34;102577.38;5053301;28;20111;-52
2023/01/26 08:07:00;;;;;;;2.15;1.33;;;;;;;8.85;61.04;102573.47;5038766;28;20018;-52
2023/01/26 08:09:27;;;;;;;2.15;1.35;;;;;;;8.64;61.61;102584.44;5033659;28;20029;-48
2023/01/26 08:11:56;;;;;;;2.80;1.30;;;;;;;8.59;61.62;102581.38;5049691;28;20033;-51
2023/01/26 08:14:23;;;;;;;4.22;1.65;;;;;;;8.41;61.86;102571.53;5053066;28;20052;-51
2023/01/26 08:16:49;;;;;;;2.95;1.33;;;;;;;8.24;62.21;102577.63;5052744;28;20032;-50
2023/01/26 08:19:16;;;;;;;1.98;1.27;;;;;;;8.26;62.15;102574.78;5038779;28;20028;-50
2023/01/26 08:21:42;;;;;;;4.70;1.73;;;;;;;8.44;61.80;102570.41;5051585;28;20463;-49
2023/01/26 08:24:11;;;;;;;4.13;1.80;;;;;;;8.55;61.11;102578.19;5053368;28;20033;-51
2023/01/26 08:26:37;;;;;;;1.73;0.90;;;;;;;8.40;61.17;102588.53;5053083;28;20064;-52
2023/01/26 08:29:04;;;;;;;1.42;1.00;;;;;;;8.41;61.13;102568.00;5053065;28;20079;-51
2023/01/26 08:31:32;;;;;;;5.80;1.60;;;;;;;8.61;60.39;102572.25;5052831;28;20036;-52
2023/01/26 08:33:58;;;;;;;2.40;1.15;;;;;;;8.57;60.06;102573.53;5053221;28;20478;-52
2023/01/26 08:36:24;;;;;;;1.65;1.33;;;;;;;8.55;59.57;102570.19;5051476;28;20044;-50
2023/01/26 08:38:53;;;;;;;2.08;1.13;;;;;;;8.61;59.10;102563.41;5052894;28;20021;-52
2023/01/26 08:41:19;;;;;;;1.25;0.80;;;;;;;8.51;58.92;102568.78;5052629;28;20025;-52
2023/01/26 08:43:45;;;;;;;0.95;0.73;;;;;;;8.63;58.42;102564.09;5053083;28;20032;-49
2023/01/26 08:46:12;;;;;;;1.33;0.90;;;;;;;8.44;59.04;102560.56;5052677;28;20063;-52
2023/01/26 08:48:38;;;;;;;2.25;1.20;;;;;;;8.42;59.38;102565.19;5052221;28;20036;-48
2023/01/26 08:51:06;;;;;;;2.03;0.93;;;;;;;8.46;59.30;102571.06;5049716;28;20090;-49
2023/01/26 08:53:35;;;;;;;1.98;1.20;;;;;;;8.51;58.94;102568.78;5052338;28;20379;-50
2023/01/26 08:56:06;;;;;;;1.90;1.30;;;;;;;8.50;58.91;102569.78;5042258;28;20112;-51
2023/01/26 08:58:33;;;;;;;2.05;1.20;;;;;;;8.41;58.82;102574.19;5040230;28;20031;-51
2023/01/26 09:01:07;;;;;;;1.73;1.08;;;;;;;8.64;58.33;102579.94;5046148;28;20112;-50
2023/01/26 09:03:33;;;;;;;2.55;0.88;;;;;;;8.65;56.91;102578.94;5050272;28;20033;-52
2023/01/26 09:06:00;;;;;;;5.65;1.70;;;;;;;8.68;56.10;102581.31;5047262;28;20036;-51
2023/01/26 09:08:27;;;;;;;3.28;1.08;;;;;;;8.77;55.72;102573.38;5050110;28;20060;-49
2023/01/26 09:10:53;;;;;;;1.65;1.00;;;;;;;8.92;55.48;102571.88;5049453;28;20041;-48
2023/01/26 09:13:19;;;;;;;1.73;0.80;;;;;;;8.89;54.93;102557.00;5038076;28;20381;-50
2023/01/26 09:15:45;;;;;;;1.90;0.60;;;;;;;8.99;54.24;102554.22;5050674;28;20387;-51
2023/01/26 09:18:12;;;;;;;1.75;0.80;;;;;;;9.02;53.57;102550.44;5049813;28;20025;-50
2023/01/26 09:20:38;;;;;;;2.80;0.73;;;;;;;9.14;52.92;102552.69;5035225;28;20595;-50
2023/01/26 09:23:05;;;;;;;1.30;0.68;;;;;;;9.17;51.56;102551.56;5036051;28;20111;-51
2023/01/26 09:25:35;;;;;;;1.58;0.60;;;;;;;9.30;50.41;102552.00;5052372;28;20466;-52
2023/01/26 09:28:01;;;;;;;1.90;0.88;;;;;;;9.51;50.03;102551.66;5052672;28;20357;-51
2023/01/26 09:30:28;;;;;;;0.85;0.70;;;;;;;9.64;49.05;102551.22;5052380;28;20061;-50
2023/01/26 09:32:58;;;;;;;1.02;0.73;;;;;;;9.77;48.75;102546.25;5051983;28;20044;-50
2023/01/26 09:35:26;;;;;;;4.07;1.00;;;;;;;10.12;48.04;102555.16;5051143;28;20386;-49
2023/01/26 09:37:52;;;;;;;4.60;1.00;;;;;;;10.17;47.67;102547.47;5048046;28;20388;-51
2023/01/26 09:40:25;;;;;;;1.35;0.93;;;;;;;10.17;47.29;102547.47;5031440;28;20025;-50
2023/01/26 09:42:59;;;;;;;4.25;0.73;;;;;;;10.31;47.42;102542.34;5031724;28;20022;-51
2023/01/26 09:45:51;;;;;;;1.88;0.82;;;;;;;10.41;47.78;102544.06;5050697;28;20067;-51
2023/01/26 09:49:01;;;;;;;1.58;0.70;;;;;;;10.56;46.58;102547.78;5051019;28;20078;-48
2023/01/26 09:51:59;;;;;;;2.10;0.70;;;;;;;10.45;46.56;102554.28;5051232;28;20047;-49
2023/01/26 09:54:49;;;;;;;1.13;0.60;;;;;;;10.57;46.09;102561.00;5028020;28;20038;-48
2023/01/26 09:57:28;;;;;;;23.73;3.75;;;;;;;10.62;46.34;102551.66;5031457;28;20030;-50
2023/01/26 10:00:26;;;;;;;9.07;2.20;;;;;;;10.43;46.75;102558.94;5031332;28;20506;-51
2023/01/26 10:03:15;;;;;;;4.32;1.23;;;;;;;10.57;46.50;102557.50;5031742;28;20037;-50
2023/01/26 10:06:05;;;;;;;2.03;1.00;;;;;;;10.41;47.06;102560.13;5031532;28;20038;-48
2023/01/26 10:08:31;;;;;;;0.90;0.50;;;;;;;10.27;47.26;102575.81;5031115;28;20112;-48
2023/01/26 10:11:03;;;;;;;1.10;0.60;;;;;;;10.22;47.70;102580.78;5048022;28;20108;-48
2023/01/26 10:13:30;;;;;;;0.90;0.57;;;;;;;10.03;48.30;102589.03;5051404;28;20037;-49
2023/01/26 10:16:03;;;;;;;3.30;0.60;;;;;;;10.15;48.11;102585.06;5051406;28;20108;-49
2023/01/26 10:18:43;;;;;;;1.08;0.60;;;;;;;10.02;47.87;102587.38;5051513;28;20040;-50
2023/01/26 10:21:11;;;;;;;0.65;0.45;;;;;;;9.92;47.19;102586.63;5051328;28;20478;-48
2023/01/26 10:23:46;;;;;;;2.22;0.65;;;;;;;10.02;45.66;102584.69;5051067;28;20025;-48
2023/01/26 10:26:22;;;;;;;0.80;0.40;;;;;;;10.58;42.58;102585.94;5051089;28;20029;-50
2023/01/26 10:28:52;;;;;;;1.48;0.40;;;;;;;11.05;41.70;102580.84;5051084;28;20371;-49
2023/01/26 10:31:22;;;;;;;1.50;0.30;;;;;;;11.28;41.37;102581.00;5050886;28;20025;-49
2023/01/26 10:34:12;;;;;;;1.25;0.40;;;;;;;11.85;39.82;102572.06;5034364;28;20025;-48
2023/01/26 10:36:41;;;;;;;0.38;0.30;;;;;;;11.96;40.14;102581.59;5031416;28;20112;-48
2023/01/26 10:39:10;;;;;;;0.52;0.30;;;;;;;12.13;39.68;102586.72;5031288;28;20025;-49
2023/01/26 10:41:38;;;;;;;0.82;0.20;;;;;;;12.49;38.73;102588.06;5030984;28;20480;-49
2023/01/26 10:44:32;;;;;;;0.13;0.13;;;;;;;12.49;38.81;102582.69;5040772;28;20497;-49
2023/01/26 10:47:06;;;;;;;0.30;0.30;;;;;;;12.48;38.71;102583.72;5051099;28;20582;-48
2023/01/26 10:49:32;;;;;;;1.02;0.30;;;;;;;12.57;38.83;102580.81;5050011;28;20090;-52
2023/01/26 10:52:18;;;;;;;0.93;0.20;;;;;;;12.64;39.02;102576.41;5051074;28;20057;-49
2023/01/26 10:54:45;;;;;;;0.38;0.30;;;;;;;12.61;39.06;102579.47;5032656;28;20029;-49
2023/01/26 10:57:26;;;;;;;0.47;0.30;;;;;;;12.62;39.14;102573.06;5039211;23;20050;-48
2023/01/26 10:59:55;;;;;;;0.90;0.40;;;;;;;12.48;39.73;102568.44;5031368;28;20472;-50
2023/01/26 11:02:29;;;;;;;0.93;0.40;;;;;;;12.31;40.10;102585.66;5034548;28;20491;-48
2023/01/26 11:05:14;;;;;;;0.40;0.20;;;;;;;12.31;40.23;102575.75;5034656;28;20079;-50
2023/01/26 11:07:43;;;;;;;0.60;0.35;;;;;;;12.36;40.36;102570.69;5034614;28;20040;-49
2023/01/26 11:10:34;;;;;;;0.65;0.25;;;;;;;12.45;39.99;102567.97;5034489;28;20025;-49
2023/01/26 11:13:18;;;;;;;0.43;0.15;;;;;;;12.37;39.75;102574.19;5034413;28;20041;-49
2023/01/26 11:15:59;;;;;;;0.98;0.20;;;;;;;12.32;39.93;102584.63;5034571;28;20391;-49
2023/01/26 11:18:41;;;;;;;0.50;0.35;;;;;;;12.58;39.32;102565.53;5034144;28;20037;-49
2023/01/26 11:21:15;;;;;;;1.05;0.25;;;;;;;12.58;39.18;102563.69;5034438;28;20052;-49
2023/01/26 11:24:02;;;;;;;0.73;0.28;;;;;;;12.53;39.48;102571.44;5031956;28;20025;-49
2023/01/26 11:27:03;;;;;;;2.38;0.70;;;;;;;12.71;39.15;102552.34;5030242;28;20025;-48
2023/01/26 11:30:00;;;;;;;0.73;0.30;;;;;;;12.61;39.04;102567.88;5018640;28;20026;-49
2023/01/26 11:32:55;;;;;;;0.70;0.40;;;;;;;12.67;38.31;102569.84;5021144;28;20484;-49
2023/01/26 11:35:27;;;;;;;0.57;0.30;;;;;;;12.80;38.46;102569.25;5016002;28;20041;-50
2023/01/26 11:38:25;;;;;;;0.25;0.20;;;;;;;12.84;38.32;102568.72;5031339;28;20490;-50
2023/01/26 11:41:13;;;;;;;0.50;0.40;;;;;;;12.97;38.11;102564.59;5027288;28;20037;-50
2023/01/26 11:44:02;;;;;;;0.73;0.20;;;;;;;12.73;38.36;102561.06;5014462;28;20033;-50
2023/01/26 11:46:54;;;;;;;0.35;0.20;;;;;;;12.84;37.99;102557.97;5025976;28;20561;-49
2023/01/26 11:49:27;;;;;;;0.35;0.20;;;;;;;12.89;38.27;102549.38;5019253;28;20403;-49
2023/01/26 11:52:17;;;;;;;0.30;0.22;;;;;;;12.98;38.08;102559.03;5030077;28;20038;-50
2023/01/26 11:55:08;;;;;;;0.20;0.20;;;;;;;12.86;38.15;102555.09;5032326;28;20037;-49
2023/01/26 11:57:55;;;;;;;1.40;0.45;;;;;;;12.97;37.65;102551.16;5033837;28;20111;-49
2023/01/26 12:00:45;;;;;;;0.73;0.30;;;;;;;13.05;37.81;102565.38;5028864;28;20431;-50
2023/01/26 12:03:44;;;;;;;0.70;0.35;;;;;;;13.06;37.83;102566.22;5014218;28;20480;-49
2023/01/26 12:06:41;;;;;;;0.45;0.30;;;;;;;12.95;37.52;102564.78;5014410;28;20037;-49
2023/01/26 12:09:17;;;;;;;0.70;0.38;;;;;;;12.93;37.70;102572.16;5008049;28;20479;-52
2023/01/26 12:12:10;;;;;;;0.90;0.40;;;;;;;12.93;37.96;102570.31;5031834;28;20430;-49
2023/01/26 12:14:43;;;;;;;0.70;0.43;;;;;;;12.98;37.98;102566.25;5033732;28;20388;-48
2023/01/26 12:17:24;;;;;;;2.13;0.40;;;;;;;12.99;37.83;102576.81;5019302;28;20034;-49
2023/01/26 12:20:14;;;;;;;0.98;0.30;;;;;;;12.98;37.77;102577.84;5032934;28;20553;-49
2023/01/26 12:23:06;;;;;;;0.88;0.30;;;;;;;13.04;37.62;102582.50;5033735;28;20040;-49
2023/01/26 12:25:40;;;;;;;0.40;0.40;;;;;;;12.92;37.90;102575.88;5024757;28;20037;-48
2023/01/26 12:28:27;;;;;;;0.93;0.40;;;;;;;12.84;38.05;102579.47;5033287;28;20049;-48
2023/01/26 12:31:02;;;;;;;0.98;0.40;;;;;;;13.07;37.47;102592.06;5032874;28;20047;-48
2023/01/26 12:33:32;;;;;;;0.50;0.30;;;;;;;13.02;38.03;102602.53;5032835;28;20025;-48
2023/01/26 12:36:40;;;;;;;0.75;0.47;;;;;;;12.74;38.43;102608.41;5032891;28;20033;-48